createdAt,value
2022-11-09T00:00:00.611Z,1.90
2022-11-09T00:02:28.056Z,2.17
2022-11-09T00:04:54.487Z,2.17
2022-11-09T00:07:21.013Z,2.20
2022-11-09T00:09:47.606Z,2.17
2022-11-09T00:12:14.155Z,1.80
2022-11-09T00:14:40.621Z,1.67
2022-11-09T00:17:07.255Z,1.90
2022-11-09T00:19:33.709Z,1.90
2022-11-09T00:22:00.147Z,2.00
2022-11-09T00:24:26.628Z,1.93
2022-11-09T00:26:53.111Z,2.03
2022-11-09T00:29:19.565Z,1.90
2022-11-09T00:31:49.665Z,1.83
2022-11-09T00:34:16.144Z,2.20
2022-11-09T00:36:42.631Z,2.00
2022-11-09T00:39:09.179Z,2.10
2022-11-09T00:41:35.644Z,1.93
2022-11-09T00:44:02.164Z,2.20
2022-11-09T00:46:28.984Z,2.20
2022-11-09T00:48:56.039Z,2.40
2022-11-09T00:51:22.692Z,2.40
2022-11-09T00:53:53.735Z,2.57
2022-11-09T00:56:21.823Z,2.60
2022-11-09T00:58:52.139Z,2.83
2022-11-09T01:01:18.743Z,2.40
2022-11-09T01:03:46.004Z,2.43
2022-11-09T01:06:19.175Z,2.70
2022-11-09T01:08:46.550Z,2.57
2022-11-09T01:11:15.166Z,2.50
2022-11-09T01:13:41.852Z,2.27
2022-11-09T01:16:11.905Z,2.57
2022-11-09T01:18:39.165Z,2.67
2022-11-09T01:21:07.835Z,2.40
2022-11-09T01:23:35.073Z,2.20
2022-11-09T01:26:04.446Z,2.13
2022-11-09T01:28:31.267Z,1.90
2022-11-09T01:31:04.914Z,1.90
2022-11-09T01:33:32.648Z,1.67
2022-11-09T01:36:07.719Z,1.60
2022-11-09T01:38:37.033Z,1.60
2022-11-09T01:41:05.446Z,1.47
2022-11-09T01:43:34.857Z,1.50
2022-11-09T01:46:06.541Z,1.40
2022-11-09T01:48:58.641Z,1.50
2022-11-09T01:51:38.714Z,1.33
2022-11-09T01:54:11.301Z,1.30
2022-11-09T01:56:38.792Z,1.20
2022-11-09T01:59:10.212Z,1.23
2022-11-09T02:01:37.136Z,1.20
2022-11-09T02:04:15.935Z,1.10
2022-11-09T02:06:43.342Z,1.10
2022-11-09T02:09:18.034Z,1.13
2022-11-09T02:11:44.506Z,1.13
2022-11-09T02:14:12.653Z,1.30
2022-11-09T02:16:40.810Z,1.10
2022-11-09T02:19:07.472Z,1.10
2022-11-09T02:21:34.351Z,1.00
2022-11-09T02:24:01.267Z,1.10
2022-11-09T02:26:35.819Z,1.07
2022-11-09T02:29:07.084Z,1.03
2022-11-09T02:31:42.177Z,1.07
2022-11-09T02:34:13.314Z,1.10
2022-11-09T02:36:40.423Z,1.13
2022-11-09T02:39:14.709Z,1.10
2022-11-09T02:41:50.288Z,1.10
2022-11-09T02:44:18.667Z,1.00
2022-11-09T02:46:45.877Z,1.00
2022-11-09T02:49:13.786Z,1.10
2022-11-09T02:51:40.262Z,1.20
2022-11-09T02:54:06.836Z,1.20
2022-11-09T02:56:33.320Z,1.00
2022-11-09T02:58:59.859Z,1.10
2022-11-09T03:01:26.388Z,1.00
2022-11-09T03:03:52.886Z,1.10
2022-11-09T03:06:19.412Z,1.50
2022-11-09T03:08:46.464Z,1.20
2022-11-09T03:11:14.637Z,1.00
2022-11-09T03:13:41.115Z,1.10
2022-11-09T03:16:09.095Z,1.17
2022-11-09T03:18:38.478Z,1.10
2022-11-09T03:21:06.062Z,1.10
2022-11-09T03:23:33.351Z,1.17
2022-11-09T03:26:00.999Z,1.20
2022-11-09T03:28:28.552Z,1.00
2022-11-09T03:30:55.981Z,1.20
2022-11-09T03:33:22.656Z,1.20
2022-11-09T03:35:49.244Z,1.00
2022-11-09T03:38:18.077Z,1.40
2022-11-09T03:40:45.285Z,1.00
2022-11-09T03:43:11.755Z,1.20
2022-11-09T03:45:38.446Z,1.17
2022-11-09T03:48:05.614Z,1.07
2022-11-09T03:50:34.067Z,1.10
2022-11-09T03:53:01.398Z,1.13
2022-11-09T03:55:28.757Z,1.23
2022-11-09T03:57:55.237Z,1.07
2022-11-09T04:00:22.717Z,1.10
2022-11-09T04:02:49.477Z,1.10
2022-11-09T04:05:16.320Z,1.10
2022-11-09T04:07:54.395Z,1.10
2022-11-09T04:10:22.165Z,0.80
2022-11-09T04:12:48.999Z,1.00
2022-11-09T04:15:16.254Z,0.90
2022-11-09T04:17:44.607Z,1.17
2022-11-09T04:20:11.961Z,1.07
2022-11-09T04:22:38.649Z,1.00
2022-11-09T04:25:05.787Z,0.90
2022-11-09T04:27:32.257Z,1.07
2022-11-09T04:29:58.716Z,0.97
2022-11-09T04:32:25.179Z,1.23
2022-11-09T04:34:51.695Z,1.10
2022-11-09T04:37:18.169Z,1.13
2022-11-09T04:39:44.628Z,1.40
2022-11-09T04:42:11.383Z,1.27
2022-11-09T04:44:37.844Z,1.13
2022-11-09T04:47:04.330Z,0.83
2022-11-09T04:49:30.784Z,1.40
2022-11-09T04:51:57.227Z,1.13
2022-11-09T04:54:23.704Z,1.20
2022-11-09T04:56:50.315Z,1.10
2022-11-09T04:59:17.001Z,1.30
2022-11-09T05:01:43.462Z,0.90
2022-11-09T05:04:10.040Z,1.10
2022-11-09T05:06:36.590Z,1.13
2022-11-09T05:09:06.710Z,1.27
2022-11-09T05:11:34.904Z,1.20
2022-11-09T05:14:01.792Z,1.20
2022-11-09T05:16:29.318Z,1.20
2022-11-09T05:18:55.926Z,1.10
2022-11-09T05:21:22.516Z,1.10
2022-11-09T05:24:00.895Z,1.30
2022-11-09T05:26:38.919Z,1.33
2022-11-09T05:29:11.339Z,1.50
2022-11-09T05:31:39.368Z,1.53
2022-11-09T05:34:07.151Z,1.47
2022-11-09T05:36:33.999Z,1.43
2022-11-09T05:39:01.069Z,1.50
2022-11-09T05:41:28.068Z,1.60
2022-11-09T05:43:54.798Z,1.20
2022-11-09T05:46:21.385Z,1.37
2022-11-09T05:48:47.839Z,1.43
2022-11-09T05:51:15.886Z,1.33
2022-11-09T05:53:46.497Z,1.30
2022-11-09T05:56:14.614Z,1.37
2022-11-09T05:58:41.937Z,1.10
2022-11-09T06:01:24.526Z,1.43
2022-11-09T06:03:54.000Z,1.20
2022-11-09T06:06:20.460Z,1.27
2022-11-09T06:08:47.025Z,1.20
2022-11-09T06:11:19.888Z,1.20
2022-11-09T06:13:49.537Z,1.60
2022-11-09T06:16:16.138Z,1.20
2022-11-09T06:18:42.581Z,1.00
2022-11-09T06:21:09.854Z,1.20
2022-11-09T06:23:36.385Z,1.03
2022-11-09T06:26:09.778Z,0.90
2022-11-09T06:28:37.384Z,0.87
2022-11-09T06:31:06.911Z,0.80
2022-11-09T06:33:34.976Z,0.90
2022-11-09T06:36:02.368Z,0.80
2022-11-09T06:38:29.036Z,0.80
2022-11-09T06:40:57.356Z,0.80
2022-11-09T06:43:24.895Z,0.70
2022-11-09T06:45:51.828Z,0.70
2022-11-09T06:48:18.596Z,0.77
2022-11-09T06:50:45.077Z,0.70
2022-11-09T06:53:14.175Z,0.87
2022-11-09T06:55:44.494Z,0.73
2022-11-09T06:58:16.010Z,0.60
2022-11-09T07:00:43.976Z,0.60
2022-11-09T07:03:15.220Z,0.77
2022-11-09T07:05:42.000Z,0.60
2022-11-09T07:08:08.734Z,0.80
2022-11-09T07:10:35.265Z,0.70
2022-11-09T07:13:03.225Z,0.67
2022-11-09T07:15:29.967Z,0.60
2022-11-09T07:17:58.318Z,0.70
2022-11-09T07:20:25.125Z,0.80
2022-11-09T07:22:51.834Z,0.73
2022-11-09T07:25:18.965Z,0.60
2022-11-09T07:27:45.879Z,0.60
2022-11-09T07:30:13.098Z,0.60
2022-11-09T07:33:07.553Z,0.70
2022-11-09T07:35:27.108Z,0.60
2022-11-09T07:37:53.666Z,0.67
2022-11-09T07:40:20.637Z,0.50
2022-11-09T07:42:47.093Z,0.80
2022-11-09T07:45:13.584Z,0.70
2022-11-09T07:47:40.075Z,0.80
2022-11-09T07:50:06.719Z,0.70
2022-11-09T07:52:33.178Z,0.70
2022-11-09T07:54:59.629Z,0.60
2022-11-09T07:57:26.100Z,0.60
2022-11-09T07:59:53.515Z,0.57
2022-11-09T08:02:20.234Z,0.60
2022-11-09T08:04:46.786Z,0.60
2022-11-09T08:07:13.371Z,0.60
2022-11-09T08:09:39.861Z,0.70
2022-11-09T08:12:06.580Z,0.67
2022-11-09T08:14:33.244Z,0.60
2022-11-09T08:16:59.702Z,0.50
2022-11-09T08:19:26.128Z,0.60
2022-11-09T08:21:57.255Z,0.70
2022-11-09T08:24:24.273Z,0.67
2022-11-09T08:26:50.780Z,0.60
2022-11-09T08:29:17.442Z,0.60
2022-11-09T08:31:43.959Z,0.50
2022-11-09T08:34:14.961Z,0.50
2022-11-09T08:36:41.442Z,0.63
2022-11-09T08:39:08.126Z,0.70
2022-11-09T08:41:34.708Z,0.57
2022-11-09T08:44:01.176Z,0.60
2022-11-09T08:46:27.822Z,0.53
2022-11-09T08:48:54.275Z,0.60
2022-11-09T08:51:20.892Z,0.90
2022-11-09T08:53:47.346Z,1.10
2022-11-09T08:56:18.575Z,0.60
2022-11-09T08:58:45.986Z,0.50
2022-11-09T09:01:16.887Z,0.80
2022-11-09T09:03:43.716Z,0.70
2022-11-09T09:06:10.191Z,0.63
2022-11-09T09:08:36.721Z,0.70
2022-11-09T09:11:04.870Z,0.60
2022-11-09T09:13:32.334Z,0.60
2022-11-09T09:16:08.512Z,0.50
2022-11-09T09:18:34.988Z,0.70
2022-11-09T09:21:01.471Z,0.90
2022-11-09T09:23:28.053Z,0.60
2022-11-09T09:25:58.542Z,0.80
2022-11-09T09:28:25.354Z,0.67
2022-11-09T09:30:52.281Z,0.73
2022-11-09T09:33:18.787Z,0.80
2022-11-09T09:35:45.306Z,0.60
2022-11-09T09:38:11.773Z,0.70
2022-11-09T09:40:43.629Z,0.80
2022-11-09T09:43:21.159Z,0.70
2022-11-09T09:45:52.452Z,0.60
2022-11-09T09:48:31.103Z,0.70
2022-11-09T09:51:20.708Z,0.80
2022-11-09T09:53:53.608Z,0.70
2022-11-09T09:56:27.980Z,0.70
2022-11-09T09:59:03.728Z,0.63
2022-11-09T10:01:42.224Z,0.77
2022-11-09T10:04:44.259Z,0.70
2022-11-09T10:07:26.666Z,0.80
2022-11-09T10:10:07.667Z,0.70
2022-11-09T10:13:10.994Z,0.70
2022-11-09T10:15:52.749Z,0.93
2022-11-09T10:18:48.847Z,0.93
2022-11-09T10:21:24.651Z,0.70
2022-11-09T10:24:27.052Z,0.80
2022-11-09T10:26:58.825Z,0.90
2022-11-09T10:29:55.015Z,1.00
2022-11-09T10:32:24.906Z,0.73
2022-11-09T10:35:09.974Z,0.80
2022-11-09T10:37:36.384Z,0.70
2022-11-09T10:40:09.345Z,0.70
2022-11-09T10:42:55.518Z,0.90
2022-11-09T10:45:43.078Z,0.60
2022-11-09T10:48:37.539Z,0.63
2022-11-09T10:51:33.161Z,1.03
2022-11-09T10:54:24.042Z,0.90
2022-11-09T10:57:18.521Z,0.70
2022-11-09T11:00:05.138Z,0.80
2022-11-09T11:02:51.928Z,0.80
2022-11-09T11:05:37.388Z,0.60
2022-11-09T11:08:27.013Z,0.70
2022-11-09T11:11:35.465Z,0.90
2022-11-09T11:14:36.280Z,0.60
2022-11-09T11:17:27.718Z,0.70
2022-11-09T11:20:29.869Z,0.70
2022-11-09T11:23:20.908Z,0.70
2022-11-09T11:26:34.465Z,0.90
2022-11-09T11:29:19.283Z,0.77
2022-11-09T11:32:09.335Z,0.90
2022-11-09T11:35:00.358Z,1.03
2022-11-09T11:37:46.235Z,0.90
2022-11-09T11:41:08.954Z,0.73
2022-11-09T11:44:15.018Z,0.80
2022-11-09T11:47:25.570Z,0.80
2022-11-09T11:50:35.997Z,1.03
2022-11-09T11:53:57.913Z,1.13
2022-11-09T11:56:51.412Z,0.63
2022-11-09T11:59:47.044Z,0.60
2022-11-09T12:02:59.998Z,0.73
2022-11-09T12:06:10.168Z,0.90
2022-11-09T12:09:06.250Z,0.90
2022-11-09T12:12:16.786Z,0.80
2022-11-09T12:15:19.891Z,1.00
2022-11-09T12:18:21.524Z,0.80
2022-11-09T12:21:11.696Z,0.80
2022-11-09T12:24:29.784Z,0.90
2022-11-09T12:27:32.109Z,0.80
2022-11-09T12:30:21.418Z,0.70
2022-11-09T12:33:15.245Z,0.90
2022-11-09T12:36:18.897Z,0.73
2022-11-09T12:39:07.370Z,1.10
2022-11-09T12:41:56.728Z,1.27
2022-11-09T12:45:03.677Z,0.87
2022-11-09T12:47:49.014Z,1.00
2022-11-09T12:50:34.536Z,1.00
2022-11-09T12:53:23.646Z,0.93
2022-11-09T12:56:32.059Z,0.80
2022-11-09T12:59:44.288Z,0.80
2022-11-09T13:02:37.317Z,1.13
2022-11-09T13:05:32.192Z,1.10
2022-11-09T13:08:20.690Z,1.27
2022-11-09T13:11:40.005Z,1.10
2022-11-09T13:14:31.020Z,0.90
2022-11-09T13:17:36.246Z,0.80
2022-11-09T13:24:00.108Z,1.00
2022-11-09T13:26:46.046Z,1.00
2022-11-09T13:29:56.080Z,1.00
2022-11-09T13:33:09.362Z,1.13
2022-11-09T13:35:55.494Z,1.10
2022-11-09T13:38:40.924Z,1.00
2022-11-09T13:41:31.955Z,0.90
2022-11-09T13:44:25.609Z,0.90
2022-11-09T13:47:31.620Z,1.10
2022-11-09T13:50:23.106Z,0.93
2022-11-09T13:53:53.115Z,1.00
2022-11-09T13:56:40.937Z,1.00
2022-11-09T13:59:29.713Z,0.93
2022-11-09T14:02:23.286Z,1.10
2022-11-09T14:05:27.578Z,1.10
2022-11-09T14:08:23.421Z,0.90
2022-11-09T14:11:36.730Z,1.13
2022-11-09T14:14:58.710Z,1.00
2022-11-09T14:17:57.731Z,0.90
2022-11-09T14:20:55.603Z,1.10
2022-11-09T14:23:41.088Z,1.00
2022-11-09T14:26:26.261Z,1.13
2022-11-09T14:29:22.852Z,0.80
2022-11-09T14:32:33.846Z,0.83
2022-11-09T14:35:18.828Z,0.90
2022-11-09T14:38:20.038Z,0.93
2022-11-09T14:41:05.692Z,1.63
2022-11-09T14:43:52.272Z,0.80
2022-11-09T14:46:37.524Z,1.10
2022-11-09T14:49:25.575Z,0.80
2022-11-09T14:52:16.273Z,1.20
2022-11-09T14:55:02.097Z,1.00
2022-11-09T14:57:48.631Z,1.00
2022-11-09T15:00:35.119Z,1.03
2022-11-09T15:03:22.804Z,0.90
2022-11-09T15:06:16.811Z,0.80
2022-11-09T15:09:07.599Z,0.70
2022-11-09T15:11:53.397Z,1.67
2022-11-09T15:14:38.719Z,1.60
2022-11-09T15:17:30.134Z,1.00
2022-11-09T15:20:15.726Z,0.90
2022-11-09T15:23:04.242Z,0.90
2022-11-09T15:25:48.993Z,0.80
2022-11-09T15:28:45.353Z,0.63
2022-11-09T15:31:30.394Z,0.80
2022-11-09T15:34:22.687Z,0.87
2022-11-09T15:37:20.085Z,0.90
2022-11-09T15:40:13.649Z,0.60
2022-11-09T15:42:58.571Z,0.70
2022-11-09T15:45:43.820Z,0.83
2022-11-09T15:48:28.982Z,0.67
2022-11-09T15:51:15.192Z,0.60
2022-11-09T15:54:03.427Z,0.67
2022-11-09T15:56:49.620Z,0.90
2022-11-09T15:59:34.729Z,1.00
2022-11-09T16:02:19.770Z,0.70
2022-11-09T16:05:04.965Z,1.00
2022-11-09T16:07:52.298Z,1.07
2022-11-09T16:10:39.640Z,1.00
2022-11-09T16:13:25.020Z,1.03
2022-11-09T16:16:12.152Z,1.00
2022-11-09T16:18:58.081Z,1.10
2022-11-09T16:21:43.170Z,1.00
2022-11-09T16:24:29.407Z,1.00
2022-11-09T16:27:43.003Z,1.10
2022-11-09T16:30:20.539Z,1.00
2022-11-09T16:33:05.690Z,1.00
2022-11-09T16:35:50.718Z,1.60
2022-11-09T16:38:41.828Z,1.30
2022-11-09T16:41:26.693Z,1.93
2022-11-09T16:44:13.435Z,1.20
2022-11-09T16:46:58.566Z,2.63
2022-11-09T16:49:43.461Z,5.80
2022-11-09T16:52:28.397Z,3.90
2022-11-09T16:55:13.558Z,3.70
2022-11-09T16:57:59.354Z,8.33
2022-11-09T17:01:09.567Z,10.53
2022-11-09T17:03:51.542Z,20.83
2022-11-09T17:06:36.567Z,15.70
2022-11-09T17:09:21.822Z,13.57
2022-11-09T17:12:07.068Z,7.80
2022-11-09T17:14:52.132Z,2.50
2022-11-09T17:17:37.026Z,2.63
2022-11-09T17:20:21.899Z,1.83
2022-11-09T17:23:06.957Z,2.30
2022-11-09T17:26:00.796Z,4.60
2022-11-09T17:28:45.658Z,7.23
2022-11-09T17:31:31.545Z,9.63
2022-11-09T17:34:16.704Z,14.37
2022-11-09T17:37:04.702Z,14.53
2022-11-09T17:39:50.165Z,9.70
2022-11-09T17:42:35.124Z,9.50
2022-11-09T17:45:20.271Z,7.03
2022-11-09T17:48:05.646Z,4.83
2022-11-09T17:50:50.689Z,7.80
2022-11-09T17:53:35.960Z,3.23
2022-11-09T17:56:20.835Z,2.93
2022-11-09T18:08:42.902Z,1.60
2022-11-09T18:15:28.875Z,1.80
2022-11-09T18:26:33.009Z,1.60
2022-11-09T18:29:18.136Z,2.17
2022-11-09T18:32:03.384Z,2.10
2022-11-09T18:34:48.346Z,1.80
2022-11-09T18:37:34.868Z,1.90
2022-11-09T18:40:19.999Z,5.67
2022-11-09T18:43:04.948Z,2.50
2022-11-09T18:45:58.609Z,4.90
2022-11-09T18:48:44.667Z,3.53
2022-11-09T18:51:29.859Z,4.57
2022-11-09T18:54:15.116Z,4.50
2022-11-09T18:57:00.305Z,5.37
2022-11-09T18:59:45.544Z,4.80
2022-11-09T19:02:30.447Z,6.20
2022-11-09T19:05:15.261Z,5.00
2022-11-09T19:08:00.662Z,7.00
2022-11-09T19:10:45.917Z,6.00
2022-11-09T19:13:30.896Z,3.40
2022-11-09T19:16:16.289Z,2.77
2022-11-09T19:19:01.524Z,3.50
2022-11-09T19:21:56.780Z,3.70
2022-11-09T19:24:42.740Z,3.13
2022-11-09T19:27:28.963Z,3.30
2022-11-09T19:30:14.003Z,4.70
2022-11-09T19:32:59.396Z,5.10
2022-11-09T19:35:52.739Z,3.77
2022-11-09T19:38:50.326Z,3.97
2022-11-09T19:41:36.116Z,3.33
2022-11-09T19:44:21.073Z,2.77
2022-11-09T19:47:07.231Z,2.67
2022-11-09T19:49:52.576Z,3.83
2022-11-09T19:52:38.790Z,3.93
2022-11-09T19:55:24.019Z,3.53
2022-11-09T19:58:09.275Z,3.43
2022-11-09T20:01:06.048Z,3.10
2022-11-09T20:03:53.335Z,3.90
2022-11-09T20:06:39.696Z,4.90
2022-11-09T20:09:24.713Z,3.93
2022-11-09T20:12:30.393Z,3.63
2022-11-09T20:15:19.465Z,3.63
2022-11-09T20:18:04.656Z,3.57
2022-11-09T20:20:49.675Z,4.20
2022-11-09T20:23:34.646Z,4.10
2022-11-09T20:26:19.693Z,4.47
2022-11-09T20:29:04.777Z,4.40
2022-11-09T20:31:49.671Z,4.67
2022-11-09T20:34:34.560Z,4.57
2022-11-09T20:37:19.478Z,4.27
2022-11-09T20:40:07.997Z,4.07
2022-11-09T20:42:52.985Z,4.10
2022-11-09T20:45:37.953Z,4.27
2022-11-09T20:48:47.000Z,3.93
2022-11-09T20:51:29.051Z,4.43
2022-11-09T20:54:14.260Z,5.20
2022-11-09T20:56:59.352Z,3.83
2022-11-09T20:59:44.164Z,4.20
2022-11-09T21:02:28.965Z,3.90
2022-11-09T21:05:13.949Z,3.30
2022-11-09T21:07:59.225Z,4.00
2022-11-09T21:10:44.291Z,3.53
2022-11-09T21:13:29.765Z,3.77
2022-11-09T21:16:16.821Z,3.43
2022-11-09T21:19:01.759Z,4.50
2022-11-09T21:21:46.548Z,3.97
2022-11-09T21:24:50.123Z,4.33
2022-11-09T21:27:53.861Z,4.47
2022-11-09T21:30:38.888Z,5.03
2022-11-09T21:33:33.267Z,5.20
2022-11-09T21:36:18.475Z,5.00
2022-11-09T21:39:03.431Z,4.77
2022-11-09T21:41:48.381Z,4.33
2022-11-09T21:44:34.546Z,4.23
2022-11-09T21:47:19.476Z,4.50
2022-11-09T21:50:09.571Z,4.93
2022-11-09T21:52:57.573Z,4.73
2022-11-09T21:55:42.653Z,4.87
2022-11-09T21:58:27.488Z,4.97
2022-11-09T22:01:12.619Z,4.80
2022-11-09T22:03:57.738Z,4.50
2022-11-09T22:06:43.387Z,4.13
2022-11-09T22:09:35.758Z,4.93
2022-11-09T22:12:43.968Z,4.53
2022-11-09T22:15:47.914Z,5.13
2022-11-09T22:18:52.848Z,4.57
2022-11-09T22:21:37.891Z,5.37
2022-11-09T22:24:23.137Z,5.57
2022-11-09T22:27:08.736Z,5.73
2022-11-09T22:29:53.939Z,5.87
2022-11-09T22:32:38.786Z,7.13
2022-11-09T22:35:23.698Z,7.87
2022-11-09T22:38:08.817Z,7.73
2022-11-09T22:40:54.153Z,8.27
2022-11-09T22:43:41.312Z,13.00
2022-11-09T22:46:26.427Z,17.77
2022-11-09T22:49:11.570Z,9.57
2022-11-09T22:51:56.502Z,7.97
2022-11-09T22:54:41.589Z,7.20
2022-11-09T22:57:27.020Z,6.53
2022-11-09T23:00:16.235Z,9.00
2022-11-09T23:03:01.077Z,8.93
2022-11-09T23:05:46.639Z,11.93
2022-11-09T23:08:37.673Z,9.67
2022-11-09T23:11:24.980Z,8.87
2022-11-09T23:14:10.926Z,10.60
2022-11-09T23:16:55.872Z,11.03
2022-11-09T23:19:40.741Z,8.90
2022-11-09T23:22:25.601Z,7.80
2022-11-09T23:25:30.068Z,6.70
2022-11-09T23:28:15.803Z,7.23
2022-11-09T23:31:03.764Z,7.67
2022-11-09T23:33:50.880Z,6.83
2022-11-09T23:36:35.547Z,6.50
2022-11-09T23:39:20.595Z,6.80
2022-11-09T23:42:05.718Z,7.03
2022-11-09T23:44:50.923Z,6.30
2022-11-09T23:47:35.779Z,8.10
2022-11-09T23:50:21.584Z,9.20
2022-11-09T23:53:06.268Z,7.17
2022-11-09T23:55:51.376Z,6.40
2022-11-09T23:58:37.386Z,6.30
